createdAt,value
2023-04-04T00:02:04.304Z,71.99
2023-04-04T00:04:33.770Z,72.03
2023-04-04T00:07:02.148Z,72.00
2023-04-04T00:09:31.176Z,71.96
2023-04-04T00:12:00.869Z,72.06
2023-04-04T00:14:29.782Z,72.02
2023-04-04T00:16:57.881Z,72.02
2023-04-04T00:19:26.671Z,71.91
2023-04-04T00:21:55.334Z,71.73
2023-04-04T00:24:23.433Z,71.73
2023-04-04T00:26:51.824Z,71.73
2023-04-04T00:29:24.083Z,71.68
2023-04-04T00:31:52.336Z,71.67
2023-04-04T00:34:20.727Z,71.67
2023-04-04T00:36:48.873Z,71.54
2023-04-04T00:39:17.418Z,71.60
2023-04-04T00:41:45.661Z,71.55
2023-04-04T00:44:13.729Z,71.56
2023-04-04T00:46:41.937Z,71.64
2023-04-04T00:49:10.379Z,71.67
2023-04-04T00:51:38.557Z,71.64
2023-04-04T00:54:06.731Z,71.73
2023-04-04T00:56:36.300Z,71.77
2023-04-04T00:59:04.467Z,71.69
2023-04-04T01:01:33.293Z,71.67
2023-04-04T01:04:03.382Z,71.86
2023-04-04T01:06:33.044Z,71.65
2023-04-04T01:09:01.646Z,71.63
2023-04-04T01:11:31.033Z,71.63
2023-04-04T01:13:59.569Z,71.60
2023-04-04T01:16:33.417Z,71.64
2023-04-04T01:19:01.758Z,71.62
2023-04-04T01:21:30.862Z,71.57
2023-04-04T01:24:00.159Z,71.56
2023-04-04T01:26:33.758Z,71.61
2023-04-04T01:29:04.659Z,71.51
2023-04-04T01:31:42.424Z,71.52
2023-04-04T01:34:36.804Z,71.35
2023-04-04T01:37:16.795Z,71.41
2023-04-04T01:39:56.436Z,71.43
2023-04-04T01:42:25.384Z,71.48
2023-04-04T01:44:56.231Z,71.42
2023-04-04T01:47:26.127Z,71.47
2023-04-04T01:49:54.817Z,71.42
2023-04-04T01:52:23.878Z,71.49
2023-04-04T01:54:54.329Z,71.54
2023-04-04T01:57:22.599Z,71.50
2023-04-04T01:59:50.765Z,71.56
2023-04-04T02:02:19.194Z,71.56
2023-04-04T02:04:47.995Z,71.58
2023-04-04T02:07:18.592Z,71.52
2023-04-04T02:09:47.640Z,71.51
2023-04-04T02:12:15.936Z,71.49
2023-04-04T02:14:44.021Z,71.65
2023-04-04T02:17:12.674Z,71.65
2023-04-04T02:19:41.065Z,71.65
2023-04-04T02:22:09.214Z,71.68
2023-04-04T02:24:38.130Z,71.74
2023-04-04T02:27:06.859Z,71.76
2023-04-04T02:29:36.594Z,71.87
2023-04-04T02:32:04.722Z,72.03
2023-04-04T02:34:33.397Z,71.94
2023-04-04T02:37:02.327Z,71.85
2023-04-04T02:39:31.052Z,71.88
2023-04-04T02:41:59.994Z,71.91
2023-04-04T02:44:28.488Z,71.91
2023-04-04T02:47:02.834Z,71.98
2023-04-04T02:49:33.007Z,72.01
2023-04-04T02:52:01.827Z,71.91
2023-04-04T02:54:34.588Z,71.75
2023-04-04T02:57:04.945Z,71.78
2023-04-04T02:59:33.424Z,71.75
2023-04-04T03:02:01.904Z,71.71
2023-04-04T03:04:30.803Z,71.80
2023-04-04T03:06:59.596Z,71.84
2023-04-04T03:09:27.649Z,71.85
2023-04-04T03:11:55.973Z,71.86
2023-04-04T03:14:26.624Z,71.91
2023-04-04T03:16:57.003Z,71.98
2023-04-04T03:19:25.566Z,72.04
2023-04-04T03:21:54.038Z,72.12
2023-04-04T03:24:22.783Z,72.10
2023-04-04T03:26:54.741Z,72.12
2023-04-04T03:29:23.203Z,72.08
2023-04-04T03:31:51.270Z,72.15
2023-04-04T03:34:19.701Z,72.19
2023-04-04T03:36:53.845Z,72.18
2023-04-04T03:39:22.816Z,72.22
2023-04-04T03:41:51.896Z,72.20
2023-04-04T03:44:19.966Z,72.15
2023-04-04T03:46:48.074Z,72.13
2023-04-04T03:49:17.060Z,72.14
2023-04-04T03:51:45.557Z,72.12
2023-04-04T03:54:13.672Z,72.17
2023-04-04T03:56:43.952Z,72.13
2023-04-04T03:59:12.751Z,72.25
2023-04-04T04:01:40.905Z,72.30
2023-04-04T04:04:11.902Z,72.32
2023-04-04T04:06:44.059Z,72.32
2023-04-04T04:09:12.884Z,72.27
2023-04-04T04:11:40.980Z,72.30
2023-04-04T04:14:09.304Z,72.30
2023-04-04T04:16:41.724Z,72.20
2023-04-04T04:19:10.783Z,72.23
2023-04-04T04:21:42.679Z,72.23
2023-04-04T04:24:12.088Z,72.25
2023-04-04T04:26:40.156Z,72.40
2023-04-04T04:29:09.397Z,72.37
2023-04-04T04:31:39.646Z,72.38
2023-04-04T04:34:08.997Z,72.29
2023-04-04T04:36:39.649Z,72.26
2023-04-04T04:39:20.698Z,72.18
2023-04-04T04:42:07.584Z,72.12
2023-04-04T04:44:38.216Z,72.05
2023-04-04T04:47:06.373Z,72.04
2023-04-04T04:49:43.708Z,72.04
2023-04-04T04:52:13.732Z,71.91
2023-04-04T04:54:46.989Z,71.71
2023-04-04T04:57:15.044Z,71.78
2023-04-04T04:59:44.709Z,71.84
2023-04-04T05:02:16.341Z,71.74
2023-04-04T05:04:45.895Z,71.61
2023-04-04T05:07:15.360Z,71.54
2023-04-04T05:09:51.105Z,71.73
2023-04-04T05:12:21.381Z,71.72
2023-04-04T05:14:51.154Z,71.69
2023-04-04T05:17:23.494Z,71.65
2023-04-04T05:19:53.909Z,71.72
2023-04-04T05:22:23.160Z,71.71
2023-04-04T05:24:53.991Z,71.64
2023-04-04T05:27:24.761Z,71.70
2023-04-04T05:29:59.234Z,71.62
2023-04-04T05:32:36.353Z,71.53
2023-04-04T05:35:09.655Z,71.40
2023-04-04T05:37:41.087Z,71.47
2023-04-04T05:40:15.701Z,71.56
2023-04-04T05:42:54.811Z,71.56
2023-04-04T05:45:26.047Z,71.45
2023-04-04T05:47:54.428Z,71.38
2023-04-04T05:50:25.838Z,71.32
2023-04-04T05:53:03.010Z,71.36
2023-04-04T05:55:31.782Z,71.20
2023-04-04T05:58:04.028Z,71.22
2023-04-04T06:00:45.402Z,71.26
2023-04-04T06:03:14.329Z,71.18
2023-04-04T06:05:44.467Z,71.08
2023-04-04T06:08:14.545Z,71.00
2023-04-04T06:10:42.739Z,71.03
2023-04-04T06:13:11.197Z,70.95
2023-04-04T06:15:41.062Z,70.95
2023-04-04T06:18:09.428Z,70.99
2023-04-04T06:20:37.967Z,70.98
2023-04-04T06:23:06.724Z,70.94
2023-04-04T06:25:37.785Z,70.86
2023-04-04T06:28:08.070Z,70.89
2023-04-04T06:30:40.749Z,70.84
2023-04-04T06:33:11.880Z,70.82
2023-04-04T06:35:44.724Z,70.69
2023-04-04T06:38:13.368Z,70.65
2023-04-04T06:40:42.731Z,70.51
2023-04-04T06:43:11.609Z,70.45
2023-04-04T06:45:44.091Z,70.38
2023-04-04T06:48:13.544Z,70.38
2023-04-04T06:50:41.943Z,70.38
2023-04-04T06:53:14.987Z,70.08
2023-04-04T06:55:43.431Z,70.01
2023-04-04T06:58:19.068Z,70.05
2023-04-04T07:00:47.601Z,70.03
2023-04-04T07:03:17.875Z,69.89
2023-04-04T07:05:46.614Z,69.79
2023-04-04T07:08:15.697Z,69.73
2023-04-04T07:10:44.128Z,69.65
2023-04-04T07:13:13.408Z,69.57
2023-04-04T07:15:48.884Z,69.50
2023-04-04T07:18:17.152Z,69.33
2023-04-04T07:20:48.615Z,69.38
2023-04-04T07:23:19.592Z,69.31
2023-04-04T07:25:50.132Z,69.18
2023-04-04T07:28:20.459Z,69.26
2023-04-04T07:30:49.802Z,69.32
2023-04-04T07:33:24.738Z,69.11
2023-04-04T07:35:54.883Z,69.13
2023-04-04T07:38:29.791Z,69.16
2023-04-04T07:41:02.411Z,69.17
2023-04-04T07:43:37.408Z,69.21
2023-04-04T07:46:10.538Z,69.28
2023-04-04T07:48:43.059Z,69.05
2023-04-04T07:51:15.124Z,68.80
2023-04-04T07:53:44.389Z,68.95
2023-04-04T07:56:19.676Z,69.06
2023-04-04T07:58:49.507Z,69.11
2023-04-04T08:01:17.648Z,69.01
2023-04-04T08:03:47.181Z,68.96
2023-04-04T08:06:15.669Z,68.80
2023-04-04T08:08:47.301Z,68.66
2023-04-04T08:11:15.686Z,68.49
2023-04-04T08:13:51.853Z,68.41
2023-04-04T08:16:28.716Z,68.34
2023-04-04T08:19:01.214Z,68.12
2023-04-04T08:21:34.595Z,67.85
2023-04-04T08:24:07.951Z,67.94
2023-04-04T08:26:38.687Z,67.86
2023-04-04T08:29:07.850Z,67.58
2023-04-04T08:31:36.693Z,67.40
2023-04-04T08:34:08.227Z,67.24
2023-04-04T08:36:38.529Z,67.06
2023-04-04T08:39:07.696Z,66.89
2023-04-04T08:41:36.838Z,66.74
2023-04-04T08:44:08.068Z,66.72
2023-04-04T08:46:43.381Z,66.60
2023-04-04T08:49:15.158Z,66.37
2023-04-04T08:51:44.791Z,66.19
2023-04-04T08:54:15.045Z,66.18
2023-04-04T08:56:43.680Z,66.13
2023-04-04T08:59:16.046Z,66.04
2023-04-04T09:01:45.435Z,66.05
2023-04-04T09:04:15.200Z,66.11
2023-04-04T09:06:44.434Z,66.02
2023-04-04T09:09:12.492Z,65.89
2023-04-04T09:11:46.040Z,65.72
2023-04-04T09:14:16.172Z,65.59
2023-04-04T09:16:44.364Z,65.66
2023-04-04T09:19:13.326Z,65.69
2023-04-04T09:21:41.684Z,65.65
2023-04-04T09:24:11.474Z,65.48
2023-04-04T09:26:51.960Z,65.44
2023-04-04T09:29:21.449Z,65.47
2023-04-04T09:31:50.515Z,65.31
2023-04-04T09:34:19.637Z,65.17
2023-04-04T09:36:47.892Z,65.13
2023-04-04T09:39:21.138Z,64.96
2023-04-04T09:41:50.591Z,64.81
2023-04-04T09:44:19.960Z,64.55
2023-04-04T09:46:52.744Z,64.46
2023-04-04T09:49:33.593Z,64.27
2023-04-04T09:52:02.901Z,64.16
2023-04-04T09:54:31.592Z,64.04
2023-04-04T09:57:01.981Z,63.88
2023-04-04T09:59:30.858Z,63.82
2023-04-04T10:02:02.373Z,63.65
2023-04-04T10:04:36.200Z,63.44
2023-04-04T10:07:06.553Z,63.19
2023-04-04T10:09:37.554Z,63.25
2023-04-04T10:12:09.962Z,63.23
2023-04-04T10:14:39.352Z,63.13
2023-04-04T10:17:10.718Z,63.09
2023-04-04T10:19:38.867Z,63.11
2023-04-04T10:22:10.522Z,63.10
2023-04-04T10:24:38.756Z,63.09
2023-04-04T10:27:07.732Z,62.79
2023-04-04T10:29:38.602Z,62.60
2023-04-04T10:32:08.275Z,62.17
2023-04-04T10:34:46.181Z,62.11
2023-04-04T10:37:18.836Z,62.40
2023-04-04T10:40:05.959Z,62.57
2023-04-04T10:42:47.207Z,62.56
2023-04-04T10:45:21.132Z,62.25
2023-04-04T10:47:51.319Z,61.96
2023-04-04T10:50:21.475Z,61.60
2023-04-04T10:52:53.941Z,61.45
2023-04-04T10:55:23.901Z,61.41
2023-04-04T10:57:55.665Z,61.16
2023-04-04T11:00:25.013Z,61.01
2023-04-04T11:03:02.295Z,60.76
2023-04-04T11:05:43.188Z,60.55
2023-04-04T11:08:20.152Z,60.46
2023-04-04T11:10:49.371Z,60.29
2023-04-04T11:13:24.157Z,60.15
2023-04-04T11:16:15.726Z,60.10
2023-04-04T11:18:51.234Z,60.08
2023-04-04T11:21:20.815Z,59.98
2023-04-04T11:23:48.988Z,59.80
2023-04-04T11:26:35.499Z,59.82
2023-04-04T11:29:04.511Z,59.67
2023-04-04T11:31:47.922Z,59.62
2023-04-04T11:34:29.927Z,59.77
2023-04-04T11:37:01.996Z,59.98
2023-04-04T11:39:31.425Z,60.37
2023-04-04T11:42:14.052Z,60.53
2023-04-04T11:44:53.740Z,60.70
2023-04-04T11:47:25.054Z,60.53
2023-04-04T11:49:53.954Z,60.61
2023-04-04T11:52:24.041Z,60.65
2023-04-04T11:54:53.346Z,60.62
2023-04-04T11:57:24.978Z,60.41
2023-04-04T11:59:53.866Z,60.46
2023-04-04T12:02:45.826Z,60.35
2023-04-04T12:05:24.909Z,60.69
2023-04-04T12:07:53.232Z,61.14
2023-04-04T12:10:22.195Z,61.35
2023-04-04T12:12:50.493Z,61.46
2023-04-04T12:15:19.766Z,61.61
2023-04-04T12:17:49.287Z,61.53
2023-04-04T12:20:17.618Z,61.45
2023-04-04T12:22:50.578Z,61.31
2023-04-04T12:25:20.395Z,61.19
2023-04-04T12:27:51.094Z,61.26
2023-04-04T12:30:19.779Z,61.56
2023-04-04T12:32:48.610Z,61.55
2023-04-04T12:35:17.185Z,61.67
2023-04-04T12:37:59.019Z,61.82
2023-04-04T12:40:37.217Z,61.87
2023-04-04T12:43:09.217Z,62.06
2023-04-04T12:45:39.371Z,62.30
2023-04-04T12:48:14.197Z,62.26
2023-04-04T12:50:54.293Z,62.38
2023-04-04T12:53:29.948Z,62.44
2023-04-04T12:56:05.255Z,62.51
2023-04-04T12:58:36.996Z,62.53
2023-04-04T13:01:07.249Z,62.63
2023-04-04T13:03:38.104Z,62.55
2023-04-04T13:06:16.301Z,62.53
2023-04-04T13:08:53.952Z,62.42
2023-04-04T13:11:22.532Z,62.53
2023-04-04T13:14:02.822Z,62.78
2023-04-04T13:16:37.135Z,62.66
2023-04-04T13:19:05.578Z,62.41
2023-04-04T13:21:34.902Z,62.33
2023-04-04T13:24:04.234Z,62.11
2023-04-04T13:26:33.120Z,61.97
2023-04-04T13:29:01.928Z,62.03
2023-04-04T13:31:34.882Z,61.71
2023-04-04T13:34:03.591Z,61.76
2023-04-04T13:36:31.863Z,61.51
2023-04-04T13:39:00.747Z,61.45
2023-04-04T13:41:28.812Z,61.37
2023-04-04T13:43:58.517Z,61.48
2023-04-04T13:46:26.673Z,61.58
2023-04-04T13:48:54.745Z,61.59
2023-04-04T13:51:24.692Z,61.54
2023-04-04T13:53:52.851Z,61.77
2023-04-04T13:56:22.260Z,61.78
2023-04-04T13:58:51.082Z,61.58
2023-04-04T14:01:23.538Z,61.68
2023-04-04T14:03:52.713Z,61.60
2023-04-04T14:06:21.165Z,61.41
2023-04-04T14:08:49.291Z,61.60
2023-04-04T14:11:19.410Z,61.43
2023-04-04T14:13:48.703Z,61.41
2023-04-04T14:16:17.019Z,61.40
2023-04-04T14:18:46.396Z,61.51
2023-04-04T14:21:14.729Z,61.78
2023-04-04T14:23:42.823Z,61.76
2023-04-04T14:26:13.783Z,61.62
2023-04-04T14:28:42.324Z,61.57
2023-04-04T14:31:10.574Z,61.49
2023-04-04T14:33:38.921Z,61.62
2023-04-04T14:36:07.332Z,61.79
2023-04-04T14:38:35.576Z,61.91
2023-04-04T14:41:05.330Z,62.03
2023-04-04T14:43:35.544Z,62.03
2023-04-04T14:46:07.398Z,62.04
2023-04-04T14:48:35.745Z,62.17
2023-04-04T14:51:05.855Z,62.26
2023-04-04T14:53:34.482Z,62.33
2023-04-04T14:56:02.784Z,62.34
2023-04-04T14:58:34.055Z,62.38
2023-04-04T15:01:02.790Z,62.46
2023-04-04T15:03:31.957Z,62.47
2023-04-04T15:06:03.408Z,62.49
2023-04-04T15:08:32.799Z,62.49
2023-04-04T15:11:01.165Z,62.73
2023-04-04T15:13:30.747Z,62.84
2023-04-04T15:16:00.383Z,62.83
2023-04-04T15:18:28.619Z,62.95
2023-04-04T15:20:59.851Z,62.92
2023-04-04T15:23:28.246Z,62.84
2023-04-04T15:25:56.451Z,62.86
2023-04-04T15:28:27.346Z,62.83
2023-04-04T15:30:56.684Z,62.87
2023-04-04T15:33:24.723Z,62.80
2023-04-04T15:35:52.848Z,62.57
2023-04-04T15:38:21.598Z,62.32
2023-04-04T15:40:50.787Z,62.35
2023-04-04T15:43:18.925Z,62.43
2023-04-04T15:45:47.471Z,62.60
2023-04-04T15:48:15.904Z,62.63
2023-04-04T15:50:45.048Z,62.75
2023-04-04T15:53:13.769Z,62.72
2023-04-04T15:55:42.869Z,62.89
2023-04-04T15:58:10.952Z,62.99
2023-04-04T16:00:39.288Z,63.00
2023-04-04T16:03:14.071Z,63.11
2023-04-04T16:05:42.294Z,63.24
2023-04-04T16:08:16.345Z,63.42
2023-04-04T16:10:44.929Z,63.67
2023-04-04T16:13:13.483Z,63.71
2023-04-04T16:15:46.801Z,63.80
2023-04-04T16:18:16.149Z,63.99
2023-04-04T16:20:44.498Z,64.13
2023-04-04T16:23:18.545Z,64.14
2023-04-04T16:25:47.294Z,64.37
2023-04-04T16:28:15.693Z,64.38
2023-04-04T16:30:44.107Z,64.28
2023-04-04T16:33:12.668Z,64.40
2023-04-04T16:35:40.710Z,64.48
2023-04-04T16:38:09.181Z,64.62
2023-04-04T16:40:37.836Z,64.61
2023-04-04T16:43:06.166Z,64.59
2023-04-04T16:45:34.298Z,64.67
2023-04-04T16:48:02.679Z,64.74
2023-04-04T16:50:32.224Z,64.87
2023-04-04T16:53:01.052Z,64.97
2023-04-04T16:55:29.576Z,65.07
2023-04-04T16:57:58.523Z,65.16
2023-04-04T17:00:26.513Z,65.36
2023-04-04T17:03:02.481Z,65.41
2023-04-04T17:05:31.083Z,65.44
2023-04-04T17:07:59.237Z,65.41
2023-04-04T17:10:27.330Z,65.42
2023-04-04T17:12:58.311Z,65.56
2023-04-04T17:15:27.362Z,65.70
2023-04-04T17:17:56.243Z,65.85
2023-04-04T17:20:24.421Z,66.05
2023-04-04T17:22:54.033Z,66.16
2023-04-04T17:25:26.805Z,66.42
2023-04-04T17:27:55.790Z,66.59
2023-04-04T17:30:24.025Z,66.84
2023-04-04T17:32:54.478Z,66.99
2023-04-04T17:35:22.646Z,67.21
2023-04-04T17:37:52.238Z,67.43
2023-04-04T17:40:20.814Z,67.65
2023-04-04T17:42:49.320Z,67.79
2023-04-04T17:45:18.540Z,67.93
2023-04-04T17:47:47.082Z,68.05
2023-04-04T17:50:15.962Z,68.20
2023-04-04T17:52:44.194Z,68.31
2023-04-04T17:55:13.616Z,68.40
2023-04-04T17:57:44.879Z,68.56
2023-04-04T18:00:13.924Z,68.83
2023-04-04T18:02:44.731Z,69.01
2023-04-04T18:05:13.452Z,69.22
2023-04-04T18:07:42.120Z,69.36
2023-04-04T18:10:11.240Z,69.45
2023-04-04T18:12:44.162Z,69.61
2023-04-04T18:15:12.784Z,69.75
2023-04-04T18:17:42.527Z,69.85
2023-04-04T18:20:14.282Z,69.88
2023-04-04T18:22:47.432Z,70.13
2023-04-04T18:25:18.005Z,70.42
2023-04-04T18:27:46.319Z,70.45
2023-04-04T18:30:14.529Z,70.45
2023-04-04T18:32:43.097Z,70.57
2023-04-04T18:35:11.231Z,70.77
2023-04-04T18:37:41.154Z,70.95
2023-04-04T18:40:09.259Z,70.95
2023-04-04T18:42:38.046Z,71.11
2023-04-04T18:45:08.227Z,71.07
2023-04-04T18:47:38.025Z,71.10
2023-04-04T18:50:07.401Z,71.23
2023-04-04T18:52:36.561Z,71.20
2023-04-04T18:55:14.066Z,71.32
2023-04-04T18:57:48.515Z,71.34
2023-04-04T19:00:16.978Z,71.49
2023-04-04T19:02:49.922Z,71.44
2023-04-04T19:05:23.461Z,71.44
2023-04-04T19:07:53.846Z,71.37
2023-04-04T19:10:22.219Z,71.40
2023-04-04T19:12:51.223Z,71.32
2023-04-04T19:15:19.327Z,71.22
2023-04-04T19:17:51.108Z,71.30
2023-04-04T19:20:19.266Z,71.35
2023-04-04T19:22:47.401Z,71.38
2023-04-04T19:25:15.612Z,71.41
2023-04-04T19:27:43.821Z,71.48
2023-04-04T19:30:33.786Z,71.47
2023-04-04T19:33:03.470Z,71.57
2023-04-04T19:35:53.616Z,71.70
2023-04-04T19:38:24.872Z,72.03
2023-04-04T19:40:55.226Z,72.23
2023-04-04T19:43:24.180Z,72.32
2023-04-04T19:45:58.278Z,72.32
2023-04-04T19:48:43.723Z,72.60
2023-04-04T19:51:17.924Z,72.63
2023-04-04T19:53:50.713Z,72.75
2023-04-04T19:56:21.451Z,72.85
2023-04-04T19:59:02.231Z,72.85
2023-04-04T20:01:34.401Z,72.94
2023-04-04T20:04:09.921Z,72.86
2023-04-04T20:06:41.582Z,72.79
2023-04-04T20:09:40.251Z,72.80
2023-04-04T20:12:10.392Z,72.80
2023-04-04T20:14:40.189Z,72.73
2023-04-04T20:17:09.876Z,72.73
2023-04-04T20:19:38.460Z,72.72
2023-04-04T20:22:06.759Z,72.66
2023-04-04T20:24:35.269Z,72.74
2023-04-04T20:27:04.067Z,72.64
2023-04-04T20:29:37.384Z,72.67
2023-04-04T20:32:09.065Z,72.71
2023-04-04T20:34:42.586Z,72.77
2023-04-04T20:37:14.410Z,72.66
2023-04-04T20:39:44.086Z,72.69
2023-04-04T20:42:50.826Z,72.69
2023-04-04T20:45:28.222Z,72.61
2023-04-04T20:48:01.737Z,72.66
2023-04-04T20:50:30.029Z,72.70
2023-04-04T20:52:59.014Z,72.62
2023-04-04T20:55:28.291Z,72.79
2023-04-04T20:58:10.045Z,72.91
2023-04-04T21:00:42.220Z,73.00
2023-04-04T21:03:32.862Z,73.17
2023-04-04T21:06:15.326Z,73.28
2023-04-04T21:08:50.715Z,73.42
2023-04-04T21:11:28.837Z,73.43
2023-04-04T21:13:57.076Z,73.53
2023-04-04T21:16:27.149Z,73.54
2023-04-04T21:19:00.700Z,73.78
2023-04-04T21:21:29.721Z,73.63
2023-04-04T21:24:00.432Z,73.65
2023-04-04T21:26:32.208Z,73.66
2023-04-04T21:29:23.653Z,73.79
2023-04-04T21:31:53.981Z,74.06
2023-04-04T21:34:23.829Z,74.18
2023-04-04T21:36:55.586Z,74.36
2023-04-04T21:39:29.723Z,74.35
2023-04-04T21:41:59.840Z,74.56
2023-04-04T21:44:27.903Z,74.62
2023-04-04T21:46:56.949Z,74.67
2023-04-04T21:49:25.442Z,74.72
2023-04-04T21:51:53.596Z,74.82
2023-04-04T21:54:22.869Z,74.92
2023-04-04T21:56:51.145Z,74.96
2023-04-04T21:59:20.219Z,74.99
2023-04-04T22:01:50.219Z,74.96
2023-04-04T22:04:19.736Z,74.94
2023-04-04T22:06:47.923Z,74.90
2023-04-04T22:09:16.059Z,74.80
2023-04-04T22:11:44.601Z,74.96
2023-04-04T22:14:18.150Z,75.12
2023-04-04T22:16:46.651Z,74.91
2023-04-04T22:19:16.123Z,75.02
2023-04-04T22:21:48.364Z,75.16
2023-04-04T22:24:18.842Z,75.20
2023-04-04T22:26:47.675Z,75.23
2023-04-04T22:29:16.359Z,75.27
2023-04-04T22:31:45.760Z,75.20
2023-04-04T22:34:15.236Z,75.12
2023-04-04T22:36:46.102Z,75.06
2023-04-04T22:39:16.505Z,75.07
2023-04-04T22:41:45.152Z,75.12
2023-04-04T22:44:13.472Z,75.17
2023-04-04T22:46:41.697Z,75.13
2023-04-04T22:49:10.383Z,75.19
2023-04-04T22:51:45.118Z,75.11
2023-04-04T22:54:15.781Z,75.13
2023-04-04T22:56:44.694Z,75.09
2023-04-04T22:59:18.084Z,74.97
2023-04-04T23:01:47.659Z,75.10
2023-04-04T23:04:17.908Z,75.12
2023-04-04T23:06:46.514Z,75.19
2023-04-04T23:09:14.709Z,75.32
2023-04-04T23:11:43.023Z,75.49
2023-04-04T23:14:14.994Z,75.34
2023-04-04T23:16:44.449Z,75.36
2023-04-04T23:19:13.764Z,75.46
2023-04-04T23:21:49.477Z,75.52
2023-04-04T23:24:17.918Z,75.34
2023-04-04T23:26:46.257Z,75.43
2023-04-04T23:29:14.612Z,75.52
2023-04-04T23:31:42.679Z,75.50
2023-04-04T23:34:11.040Z,75.47
2023-04-04T23:36:39.232Z,75.50
2023-04-04T23:39:11.947Z,75.74
2023-04-04T23:41:41.032Z,76.12
2023-04-04T23:44:09.162Z,76.33
2023-04-04T23:46:37.753Z,76.27
2023-04-04T23:49:06.048Z,76.21
2023-04-04T23:51:39.209Z,76.22
2023-04-04T23:54:08.241Z,76.23
2023-04-04T23:56:36.523Z,76.14
2023-04-04T23:59:05.120Z,76.21
